createdAt,value
2023-04-27T00:02:35.961Z,1.30
2023-04-27T00:05:39.953Z,1.00
2023-04-27T00:08:43.363Z,1.40
2023-04-27T00:11:46.540Z,1.50
2023-04-27T00:14:49.523Z,1.00
2023-04-27T00:17:53.917Z,1.60
2023-04-27T00:20:57.055Z,1.33
2023-04-27T00:23:59.985Z,1.42
2023-04-27T00:27:03.015Z,0.90
2023-04-27T00:30:07.166Z,1.08
2023-04-27T00:36:14.654Z,1.17
2023-04-27T00:39:17.732Z,1.30
2023-04-27T00:42:21.475Z,1.50
2023-04-27T00:45:24.703Z,1.50
2023-04-27T00:48:29.656Z,1.80
2023-04-27T00:51:32.695Z,2.72
2023-04-27T00:54:35.771Z,2.55
2023-04-27T00:57:39.132Z,2.80
2023-04-27T01:00:42.658Z,3.10
2023-04-27T01:03:47.534Z,1.98
2023-04-27T01:06:50.613Z,1.48
2023-04-27T01:09:53.981Z,1.20
2023-04-27T01:12:57.448Z,1.60
2023-04-27T01:16:00.467Z,1.40
2023-04-27T01:19:05.313Z,1.35
2023-04-27T01:22:08.244Z,1.92
2023-04-27T01:25:12.921Z,1.08
2023-04-27T01:28:15.967Z,1.80
2023-04-27T01:31:18.999Z,1.75
2023-04-27T01:34:22.126Z,1.60
2023-04-27T01:37:25.309Z,1.65
2023-04-27T01:40:29.815Z,1.50
2023-04-27T01:43:32.962Z,1.73
2023-04-27T01:46:36.086Z,1.30
2023-04-27T01:49:39.164Z,1.25
2023-04-27T01:55:16.216Z,1.40
2023-04-27T01:58:19.182Z,1.27
2023-04-27T02:01:22.753Z,1.55
2023-04-27T02:04:26.390Z,1.38
2023-04-27T02:07:30.722Z,1.50
2023-04-27T02:10:35.957Z,1.07
2023-04-27T02:13:39.233Z,0.80
2023-04-27T02:16:42.343Z,0.97
2023-04-27T02:19:45.619Z,0.98
2023-04-27T02:22:48.629Z,1.17
2023-04-27T02:25:53.169Z,0.90
2023-04-27T02:28:56.973Z,0.70
2023-04-27T02:32:00.643Z,0.95
2023-04-27T02:35:04.749Z,1.20
2023-04-27T02:38:08.035Z,1.40
2023-04-27T02:41:12.706Z,0.93
2023-04-27T02:44:15.916Z,0.82
2023-04-27T02:47:19.189Z,1.23
2023-04-27T02:50:22.409Z,1.40
2023-04-27T02:53:25.684Z,1.20
2023-04-27T02:56:30.108Z,1.33
2023-04-27T02:59:33.637Z,1.23
2023-04-27T03:02:36.907Z,0.98
2023-04-27T03:05:39.907Z,1.63
2023-04-27T03:08:43.450Z,1.10
2023-04-27T03:11:47.712Z,1.20
2023-04-27T03:14:50.773Z,1.42
2023-04-27T03:17:53.719Z,1.23
2023-04-27T03:21:06.524Z,1.55
2023-04-27T03:24:09.751Z,1.27
2023-04-27T03:27:14.090Z,1.60
2023-04-27T03:30:41.745Z,1.55
2023-04-27T03:33:44.758Z,2.00
2023-04-27T03:36:47.899Z,2.25
2023-04-27T03:39:50.976Z,1.55
2023-04-27T03:42:54.195Z,1.60
2023-04-27T03:45:58.624Z,1.87
2023-04-27T03:49:01.973Z,1.50
2023-04-27T03:52:05.683Z,1.23
2023-04-27T03:55:10.025Z,1.55
2023-04-27T03:58:13.142Z,1.30
2023-04-27T04:01:18.925Z,1.70
2023-04-27T04:04:22.780Z,1.75
2023-04-27T04:07:25.894Z,1.88
2023-04-27T04:10:28.876Z,2.05
2023-04-27T04:13:31.857Z,1.40
2023-04-27T04:16:36.701Z,1.75
2023-04-27T04:19:39.666Z,2.50
2023-04-27T04:22:43.148Z,1.60
2023-04-27T04:25:47.957Z,1.42
2023-04-27T04:28:51.034Z,1.80
2023-04-27T04:31:56.963Z,1.70
2023-04-27T04:35:01.392Z,1.45
2023-04-27T04:38:04.455Z,1.80
2023-04-27T04:41:08.377Z,2.08
2023-04-27T04:44:12.016Z,1.63
2023-04-27T04:47:17.648Z,1.48
2023-04-27T04:50:20.683Z,2.00
2023-04-27T04:53:23.911Z,2.10
2023-04-27T04:56:26.899Z,2.10
2023-04-27T04:59:34.022Z,1.77
2023-04-27T05:02:38.780Z,1.95
2023-04-27T05:05:42.100Z,1.50
2023-04-27T05:08:45.330Z,1.90
2023-04-27T05:11:48.309Z,2.05
2023-04-27T05:14:52.231Z,1.80
2023-04-27T05:17:56.720Z,1.80
2023-04-27T05:21:00.242Z,1.70
2023-04-27T05:24:03.283Z,1.63
2023-04-27T05:27:06.414Z,1.70
2023-04-27T05:30:11.166Z,1.40
2023-04-27T05:33:15.530Z,1.80
2023-04-27T05:36:18.810Z,1.58
2023-04-27T05:39:21.818Z,1.70
2023-04-27T05:42:24.914Z,1.50
2023-04-27T05:45:28.206Z,1.35
2023-04-27T05:48:32.755Z,1.50
2023-04-27T05:51:35.737Z,1.08
2023-04-27T05:54:38.762Z,1.60
2023-04-27T05:58:08.674Z,1.30
2023-04-27T06:01:12.731Z,1.38
2023-04-27T06:04:16.187Z,1.67
2023-04-27T06:07:19.352Z,1.17
2023-04-27T06:10:22.691Z,1.20
2023-04-27T06:13:27.629Z,1.13
2023-04-27T06:16:31.129Z,1.15
2023-04-27T06:19:34.228Z,1.20
2023-04-27T06:22:38.238Z,1.20
2023-04-27T06:25:41.320Z,1.10
2023-04-27T06:28:46.873Z,1.10
2023-04-27T06:31:50.304Z,0.75
2023-04-27T06:34:53.376Z,1.00
2023-04-27T06:37:58.680Z,0.90
2023-04-27T06:41:02.969Z,1.15
2023-04-27T06:47:11.065Z,0.90
2023-04-27T06:50:14.988Z,0.70
2023-04-27T06:53:18.281Z,0.50
2023-04-27T06:56:21.302Z,0.80
2023-04-27T06:59:26.502Z,0.80
2023-04-27T07:02:29.694Z,0.90
2023-04-27T07:05:34.567Z,0.68
2023-04-27T07:08:37.832Z,1.05
2023-04-27T07:11:41.133Z,0.30
2023-04-27T07:14:46.208Z,0.87
2023-04-27T07:17:49.281Z,0.90
2023-04-27T07:20:52.354Z,0.90
2023-04-27T07:23:56.198Z,0.80
2023-04-27T07:26:59.373Z,0.80
2023-04-27T07:30:05.249Z,0.60
2023-04-27T07:33:08.248Z,0.52
2023-04-27T07:36:11.367Z,0.90
2023-04-27T07:39:36.681Z,0.70
2023-04-27T07:42:39.867Z,0.65
2023-04-27T07:45:44.029Z,0.88
2023-04-27T07:51:50.189Z,0.85
2023-04-27T07:54:54.704Z,0.40
2023-04-27T07:57:58.441Z,0.47
2023-04-27T08:01:02.206Z,0.68
2023-04-27T08:04:05.959Z,0.85
2023-04-27T08:07:09.749Z,0.70
2023-04-27T08:13:18.680Z,0.60
2023-04-27T08:16:21.705Z,0.43
2023-04-27T08:19:24.698Z,0.60
2023-04-27T08:22:27.767Z,0.68
2023-04-27T08:25:33.542Z,0.45
2023-04-27T08:28:36.617Z,0.50
2023-04-27T08:31:39.736Z,1.20
2023-04-27T08:34:44.949Z,0.93
2023-04-27T08:37:47.948Z,0.50
2023-04-27T08:40:52.357Z,0.80
2023-04-27T08:43:55.672Z,0.40
2023-04-27T08:46:59.486Z,0.50
2023-04-27T08:50:02.475Z,0.70
2023-04-27T08:53:05.650Z,0.47
2023-04-27T08:56:10.163Z,0.75
2023-04-27T08:59:18.031Z,0.52
2023-04-27T09:02:21.980Z,0.70
2023-04-27T09:05:25.521Z,0.60
2023-04-27T09:08:28.547Z,0.57
2023-04-27T09:11:34.714Z,0.80
2023-04-27T09:14:37.967Z,0.40
2023-04-27T09:17:40.995Z,0.90
2023-04-27T09:20:44.926Z,0.52
2023-04-27T09:23:47.941Z,0.28
2023-04-27T09:26:52.435Z,0.70
2023-04-27T09:29:55.889Z,0.40
2023-04-27T09:33:01.305Z,0.30
2023-04-27T09:36:06.543Z,0.60
2023-04-27T09:39:10.196Z,0.63
2023-04-27T09:42:15.782Z,0.50
2023-04-27T09:45:19.477Z,0.70
2023-04-27T09:48:23.685Z,0.38
2023-04-27T09:54:34.670Z,0.68
2023-04-27T09:57:45.280Z,0.40
2023-04-27T10:01:00.870Z,0.60
2023-04-27T10:04:14.351Z,0.40
2023-04-27T10:07:40.977Z,0.60
2023-04-27T10:10:47.922Z,0.77
2023-04-27T10:13:55.774Z,0.70
2023-04-27T10:17:00.671Z,0.95
2023-04-27T10:20:07.650Z,0.32
2023-04-27T10:23:11.978Z,0.32
2023-04-27T10:26:22.818Z,0.63
2023-04-27T10:29:36.643Z,0.57
2023-04-27T10:32:39.957Z,0.60
2023-04-27T10:35:45.214Z,0.70
2023-04-27T10:38:57.498Z,0.80
2023-04-27T10:42:01.048Z,0.45
2023-04-27T10:45:04.333Z,0.38
2023-04-27T10:48:08.380Z,0.57
2023-04-27T10:54:15.874Z,0.47
2023-04-27T11:00:25.650Z,0.35
2023-04-27T11:03:28.666Z,0.47
2023-04-27T11:06:33.594Z,0.30
2023-04-27T11:09:39.543Z,0.60
2023-04-27T11:12:42.997Z,0.57
2023-04-27T11:15:48.899Z,0.50
2023-04-27T11:18:52.064Z,0.90
2023-04-27T11:22:04.232Z,0.80
2023-04-27T11:25:09.636Z,0.82
2023-04-27T11:28:18.393Z,0.50
2023-04-27T11:31:21.805Z,0.77
2023-04-27T11:34:26.603Z,0.53
2023-04-27T11:37:29.695Z,0.52
2023-04-27T11:40:35.934Z,0.90
2023-04-27T11:43:42.889Z,0.50
2023-04-27T11:46:47.352Z,0.60
2023-04-27T11:49:51.587Z,0.47
2023-04-27T11:52:55.914Z,0.50
2023-04-27T11:56:05.203Z,0.60
2023-04-27T11:59:20.176Z,0.40
2023-04-27T12:02:23.969Z,0.40
2023-04-27T12:05:27.320Z,0.40
2023-04-27T12:08:31.243Z,0.30
2023-04-27T12:11:35.614Z,0.70
2023-04-27T12:14:38.601Z,0.68
2023-04-27T12:17:41.955Z,0.40
2023-04-27T12:20:45.070Z,0.50
2023-04-27T12:23:48.034Z,0.38
2023-04-27T12:26:53.015Z,0.40
2023-04-27T12:29:58.446Z,0.47
2023-04-27T12:33:02.326Z,0.38
2023-04-27T12:36:05.739Z,0.52
2023-04-27T12:39:30.439Z,0.50
2023-04-27T12:42:33.832Z,0.30
2023-04-27T12:45:37.058Z,0.57
2023-04-27T12:48:40.317Z,0.38
2023-04-27T12:51:43.825Z,0.40
2023-04-27T12:54:48.394Z,3.37
2023-04-27T12:57:51.437Z,0.52
2023-04-27T13:00:57.548Z,0.65
2023-04-27T13:04:02.236Z,1.42
2023-04-27T13:07:06.580Z,1.30
2023-04-27T13:10:12.327Z,0.88
2023-04-27T13:13:15.406Z,0.73
2023-04-27T13:16:19.223Z,0.50
2023-04-27T13:19:22.270Z,0.65
2023-04-27T13:22:26.372Z,0.50
2023-04-27T13:28:33.932Z,0.17
2023-04-27T13:31:36.957Z,0.67
2023-04-27T13:34:40.271Z,0.30
2023-04-27T13:37:43.195Z,0.50
2023-04-27T13:40:47.475Z,0.30
2023-04-27T13:46:53.402Z,0.30
2023-04-27T13:49:56.662Z,0.57
2023-04-27T13:52:59.658Z,0.28
2023-04-27T13:56:04.235Z,0.77
2023-04-27T13:59:09.268Z,0.50
2023-04-27T14:02:12.373Z,0.38
2023-04-27T14:05:15.402Z,0.60
2023-04-27T14:08:18.946Z,0.35
2023-04-27T14:11:23.256Z,0.60
2023-04-27T14:14:26.384Z,0.50
2023-04-27T14:17:29.753Z,0.43
2023-04-27T14:20:32.981Z,0.50
2023-04-27T14:23:36.585Z,0.70
2023-04-27T14:26:43.809Z,0.80
2023-04-27T14:29:47.076Z,0.50
2023-04-27T14:32:50.132Z,0.40
2023-04-27T14:35:53.176Z,0.40
2023-04-27T14:38:56.460Z,0.20
2023-04-27T14:42:00.948Z,0.40
2023-04-27T14:45:04.187Z,0.70
2023-04-27T14:48:07.397Z,0.28
2023-04-27T14:51:11.064Z,0.45
2023-04-27T14:54:14.002Z,0.38
2023-04-27T14:57:18.541Z,0.32
2023-04-27T15:00:21.778Z,0.80
2023-04-27T15:03:24.814Z,0.30
2023-04-27T15:06:28.484Z,0.30
2023-04-27T15:09:31.844Z,0.93
2023-04-27T15:12:37.815Z,0.40
2023-04-27T15:15:41.100Z,0.63
2023-04-27T15:18:44.622Z,0.30
2023-04-27T15:21:48.742Z,0.73
2023-04-27T15:24:52.372Z,0.25
2023-04-27T15:27:56.682Z,0.43
2023-04-27T15:31:00.005Z,0.40
2023-04-27T15:34:03.115Z,0.50
2023-04-27T15:37:06.362Z,0.32
2023-04-27T15:40:10.479Z,0.60
2023-04-27T15:43:15.041Z,0.40
2023-04-27T15:46:18.877Z,0.60
2023-04-27T15:49:22.480Z,0.63
2023-04-27T15:52:25.674Z,0.60
2023-04-27T15:55:28.722Z,0.50
2023-04-27T15:58:33.214Z,0.50
2023-04-27T16:01:36.381Z,0.40
2023-04-27T16:04:39.555Z,0.60
2023-04-27T16:07:43.843Z,0.65
2023-04-27T16:13:50.926Z,0.30
2023-04-27T16:19:59.184Z,0.57
2023-04-27T16:23:02.442Z,0.43
2023-04-27T16:26:05.766Z,0.15
2023-04-27T16:29:10.295Z,0.60
2023-04-27T16:32:13.438Z,0.47
2023-04-27T16:35:16.531Z,0.45
2023-04-27T16:38:19.631Z,0.40
2023-04-27T16:41:24.388Z,0.75
2023-04-27T16:44:29.012Z,0.50
2023-04-27T16:47:32.886Z,0.20
2023-04-27T16:50:37.313Z,0.60
2023-04-27T16:53:41.427Z,2.38
2023-04-27T16:59:51.662Z,0.57
2023-04-27T17:02:55.463Z,0.77
2023-04-27T17:05:58.991Z,0.80
2023-04-27T17:09:02.333Z,0.40
2023-04-27T17:12:11.114Z,0.53
2023-04-27T17:15:15.696Z,0.70
2023-04-27T17:18:19.015Z,0.93
2023-04-27T17:21:24.918Z,0.55
2023-04-27T17:24:28.413Z,0.47
2023-04-27T17:27:31.734Z,0.40
2023-04-27T17:30:36.720Z,0.43
2023-04-27T17:33:40.130Z,0.63
2023-04-27T17:36:43.369Z,0.57
2023-04-27T17:39:46.531Z,0.97
2023-04-27T17:42:49.851Z,0.70
2023-04-27T17:45:54.483Z,0.60
2023-04-27T17:49:20.087Z,0.60
2023-04-27T17:52:23.265Z,0.52
2023-04-27T17:55:26.952Z,0.45
2023-04-27T17:58:30.080Z,0.73
2023-04-27T18:01:33.681Z,0.30
2023-04-27T18:04:39.706Z,0.50
2023-04-27T18:07:43.050Z,0.40
2023-04-27T18:10:46.137Z,0.77
2023-04-27T18:13:49.112Z,0.50
2023-04-27T18:16:52.236Z,0.45
2023-04-27T18:20:07.683Z,0.57
2023-04-27T18:23:12.245Z,0.60
2023-04-27T18:26:15.239Z,1.00
2023-04-27T18:29:18.490Z,0.40
2023-04-27T18:32:22.365Z,0.50
2023-04-27T18:35:26.941Z,0.70
2023-04-27T18:38:30.021Z,0.60
2023-04-27T18:41:33.237Z,0.73
2023-04-27T18:44:36.401Z,0.52
2023-04-27T18:47:39.958Z,0.60
2023-04-27T18:50:44.446Z,0.75
2023-04-27T18:53:47.526Z,1.83
2023-04-27T18:56:53.107Z,0.75
2023-04-27T18:59:56.468Z,0.35
2023-04-27T19:02:59.843Z,0.97
2023-04-27T19:06:04.520Z,0.57
2023-04-27T19:09:09.052Z,0.50
2023-04-27T19:12:12.004Z,0.50
2023-04-27T19:15:15.384Z,0.65
2023-04-27T19:18:18.457Z,0.50
2023-04-27T19:21:22.755Z,0.55
2023-04-27T19:27:28.937Z,0.70
2023-04-27T19:30:31.891Z,0.90
2023-04-27T19:33:34.900Z,1.33
2023-04-27T19:36:39.261Z,1.00
2023-04-27T19:39:42.264Z,0.60
2023-04-27T19:42:45.420Z,0.77
2023-04-27T19:45:49.690Z,0.70
2023-04-27T19:51:58.128Z,0.80
2023-04-27T19:58:04.214Z,0.73
2023-04-27T20:01:07.360Z,0.90
2023-04-27T20:04:11.043Z,1.00
2023-04-27T20:07:15.470Z,1.00
2023-04-27T20:10:18.779Z,1.10
2023-04-27T20:13:21.860Z,0.80
2023-04-27T20:16:25.476Z,1.00
2023-04-27T20:19:28.590Z,0.70
2023-04-27T20:22:33.200Z,1.15
2023-04-27T20:25:36.269Z,0.98
2023-04-27T20:28:39.279Z,0.82
2023-04-27T20:31:42.369Z,1.17
2023-04-27T20:34:45.347Z,0.80
2023-04-27T20:37:49.778Z,1.23
2023-04-27T20:40:54.028Z,0.70
2023-04-27T20:47:00.450Z,0.70
2023-04-27T20:50:03.868Z,0.97
2023-04-27T20:53:08.292Z,0.63
2023-04-27T20:56:11.887Z,1.02
2023-04-27T20:59:15.069Z,0.95
2023-04-27T21:02:18.114Z,0.77
2023-04-27T21:05:21.150Z,0.90
2023-04-27T21:08:25.911Z,0.90
2023-04-27T21:11:28.875Z,0.68
2023-04-27T21:14:31.894Z,0.50
2023-04-27T21:17:34.933Z,0.90
2023-04-27T21:20:38.052Z,0.50
2023-04-27T21:23:42.394Z,0.60
2023-04-27T21:26:45.381Z,0.43
2023-04-27T21:29:48.689Z,0.90
2023-04-27T21:32:51.747Z,0.50
2023-04-27T21:35:54.982Z,0.75
2023-04-27T21:38:59.404Z,0.80
2023-04-27T21:42:02.649Z,0.65
2023-04-27T21:45:28.336Z,0.77
2023-04-27T21:48:31.687Z,0.73
2023-04-27T21:51:34.811Z,0.30
2023-04-27T21:54:38.306Z,0.70
2023-04-27T21:57:41.394Z,0.87
2023-04-27T22:00:46.533Z,0.70
2023-04-27T22:03:49.927Z,0.50
2023-04-27T22:06:53.480Z,0.60
2023-04-27T22:09:56.682Z,0.30
2023-04-27T22:13:05.234Z,0.80
2023-04-27T22:16:19.395Z,0.40
2023-04-27T22:19:43.046Z,1.20
2023-04-27T22:22:46.775Z,1.02
2023-04-27T22:25:49.863Z,0.77
2023-04-27T22:28:53.327Z,0.68
2023-04-27T22:31:56.718Z,0.70
2023-04-27T22:35:01.493Z,0.70
2023-04-27T22:38:04.912Z,0.73
2023-04-27T22:41:07.883Z,0.73
2023-04-27T22:44:11.932Z,0.47
2023-04-27T22:47:15.517Z,1.02
2023-04-27T22:50:20.109Z,0.60
2023-04-27T22:53:23.416Z,0.50
2023-04-27T22:56:26.677Z,0.93
2023-04-27T22:59:29.903Z,0.60
2023-04-27T23:02:33.188Z,0.82
2023-04-27T23:05:37.771Z,0.60
2023-04-27T23:08:43.065Z,0.60
2023-04-27T23:11:47.136Z,0.88
2023-04-27T23:14:50.359Z,0.50
2023-04-27T23:17:53.324Z,0.60
2023-04-27T23:20:57.680Z,0.80
2023-04-27T23:24:01.094Z,0.77
2023-04-27T23:27:04.204Z,0.70
2023-04-27T23:30:09.236Z,0.60
2023-04-27T23:33:12.855Z,0.80
2023-04-27T23:36:17.375Z,0.70
2023-04-27T23:39:20.524Z,1.10
2023-04-27T23:42:23.687Z,0.70
2023-04-27T23:45:27.102Z,0.80
2023-04-27T23:48:30.110Z,0.90
2023-04-27T23:51:34.491Z,0.57
2023-04-27T23:54:37.504Z,0.60
2023-04-27T23:57:40.424Z,0.80
